createdAt,value
2023-05-21T00:01:50.063Z,18.80
2023-05-21T00:04:18.202Z,18.30
2023-05-21T00:06:46.422Z,19.90
2023-05-21T00:09:14.572Z,19.33
2023-05-21T00:11:42.793Z,19.60
2023-05-21T00:14:10.985Z,19.67
2023-05-21T00:16:40.669Z,19.77
2023-05-21T00:19:10.310Z,20.20
2023-05-21T00:21:39.546Z,20.03
2023-05-21T00:24:08.184Z,20.40
2023-05-21T00:26:36.343Z,19.80
2023-05-21T00:29:04.680Z,19.40
2023-05-21T00:31:33.824Z,19.70
2023-05-21T00:34:03.493Z,18.80
2023-05-21T00:36:31.928Z,18.97
2023-05-21T00:39:00.018Z,18.73
2023-05-21T00:41:30.221Z,18.90
2023-05-21T00:44:00.347Z,19.23
2023-05-21T00:46:29.514Z,18.80
2023-05-21T00:48:58.883Z,19.20
2023-05-21T00:51:30.895Z,19.00
2023-05-21T00:53:59.866Z,19.40
2023-05-21T00:56:28.910Z,20.03
2023-05-21T00:58:58.390Z,18.87
2023-05-21T01:01:27.078Z,18.90
2023-05-21T01:03:57.801Z,19.00
2023-05-21T01:06:26.405Z,19.23
2023-05-21T01:08:57.311Z,19.73
2023-05-21T01:11:38.116Z,18.80
2023-05-21T01:14:08.034Z,18.70
2023-05-21T01:16:38.165Z,19.50
2023-05-21T01:19:07.974Z,19.70
2023-05-21T01:21:56.977Z,19.53
2023-05-21T01:24:26.539Z,19.63
2023-05-21T01:26:54.619Z,20.20
2023-05-21T01:29:23.077Z,19.60
2023-05-21T01:32:01.368Z,19.80
2023-05-21T01:34:35.507Z,21.13
2023-05-21T01:37:14.057Z,20.00
2023-05-21T01:39:48.013Z,18.73
2023-05-21T01:42:19.448Z,19.37
2023-05-21T01:44:48.754Z,19.13
2023-05-21T01:47:19.039Z,19.50
2023-05-21T01:49:47.851Z,19.20
2023-05-21T01:52:16.089Z,19.07
2023-05-21T01:54:45.553Z,18.53
2023-05-21T01:57:13.732Z,18.20
2023-05-21T01:59:41.881Z,18.60
2023-05-21T02:02:10.332Z,19.10
2023-05-21T02:04:41.335Z,19.77
2023-05-21T02:07:10.258Z,19.43
2023-05-21T02:09:38.545Z,19.43
2023-05-21T02:12:09.337Z,19.63
2023-05-21T02:14:38.442Z,19.70
2023-05-21T02:17:08.174Z,19.50
2023-05-21T02:19:36.344Z,19.53
2023-05-21T02:22:04.556Z,19.20
2023-05-21T02:24:32.617Z,18.90
2023-05-21T02:27:00.709Z,19.20
2023-05-21T02:29:30.321Z,20.00
2023-05-21T02:31:58.511Z,20.00
2023-05-21T02:34:26.856Z,20.63
2023-05-21T02:36:55.260Z,20.87
2023-05-21T02:39:23.409Z,20.87
2023-05-21T02:41:51.699Z,20.87
2023-05-21T02:44:20.936Z,21.40
2023-05-21T02:46:50.483Z,20.63
2023-05-21T02:49:18.559Z,19.27
2023-05-21T02:51:46.608Z,19.13
2023-05-21T02:54:14.768Z,19.60
2023-05-21T02:56:42.886Z,18.77
2023-05-21T02:59:11.113Z,19.67
2023-05-21T03:01:41.277Z,18.97
2023-05-21T03:04:10.914Z,19.67
2023-05-21T03:06:39.029Z,20.00
2023-05-21T03:09:07.327Z,20.40
2023-05-21T03:11:35.455Z,20.60
2023-05-21T03:14:03.724Z,19.50
2023-05-21T03:16:35.724Z,19.60
2023-05-21T03:19:03.837Z,19.27
2023-05-21T03:21:34.662Z,19.90
2023-05-21T03:24:03.088Z,20.13
2023-05-21T03:26:31.192Z,21.60
2023-05-21T03:28:59.728Z,20.93
2023-05-21T03:31:28.302Z,20.90
2023-05-21T03:33:56.454Z,20.27
2023-05-21T03:36:24.524Z,20.57
2023-05-21T03:38:54.008Z,20.60
2023-05-21T03:41:22.304Z,20.50
2023-05-21T03:43:50.418Z,20.40
2023-05-21T03:46:18.752Z,20.47
2023-05-21T03:48:47.990Z,20.20
2023-05-21T03:51:18.073Z,20.50
2023-05-21T03:53:46.200Z,20.80
2023-05-21T03:56:15.701Z,21.33
2023-05-21T03:58:43.890Z,22.23
2023-05-21T04:01:12.437Z,21.57
2023-05-21T04:03:41.283Z,21.87
2023-05-21T04:06:10.830Z,22.80
2023-05-21T04:08:39.696Z,22.10
2023-05-21T04:11:07.775Z,21.80
2023-05-21T04:13:37.318Z,21.77
2023-05-21T04:16:08.963Z,21.70
2023-05-21T04:18:37.360Z,21.30
2023-05-21T04:21:06.084Z,21.20
2023-05-21T04:23:36.752Z,20.60
2023-05-21T04:26:05.564Z,20.63
2023-05-21T04:28:33.677Z,20.80
2023-05-21T04:31:03.220Z,20.87
2023-05-21T04:33:31.426Z,20.73
2023-05-21T04:35:59.595Z,21.03
2023-05-21T04:38:27.709Z,21.43
2023-05-21T04:40:56.394Z,21.30
2023-05-21T04:43:26.291Z,21.63
2023-05-21T04:45:55.571Z,22.37
2023-05-21T04:48:26.927Z,21.77
2023-05-21T04:50:56.102Z,21.40
2023-05-21T04:53:26.046Z,21.50
2023-05-21T04:55:54.407Z,21.57
2023-05-21T04:58:23.003Z,21.80
2023-05-21T05:00:52.003Z,21.67
2023-05-21T05:03:20.516Z,21.13
2023-05-21T05:05:50.085Z,21.50
2023-05-21T05:08:18.204Z,21.67
2023-05-21T05:10:46.274Z,22.27
2023-05-21T05:13:14.360Z,21.00
2023-05-21T05:15:47.542Z,21.50
2023-05-21T05:18:17.632Z,21.07
2023-05-21T05:20:46.741Z,20.77
2023-05-21T05:23:16.611Z,21.27
2023-05-21T05:25:44.789Z,21.07
2023-05-21T05:28:12.938Z,20.43
2023-05-21T05:30:41.172Z,21.93
2023-05-21T05:33:09.402Z,20.00
2023-05-21T05:35:37.935Z,20.80
2023-05-21T05:38:08.998Z,20.80
2023-05-21T05:40:38.600Z,20.37
2023-05-21T05:43:06.727Z,20.13
2023-05-21T05:45:35.199Z,19.97
2023-05-21T05:48:03.938Z,20.93
2023-05-21T05:50:32.126Z,20.20
2023-05-21T05:53:00.246Z,20.37
2023-05-21T05:55:29.041Z,19.30
2023-05-21T05:57:59.063Z,19.47
2023-05-21T06:00:27.239Z,19.70
2023-05-21T06:02:55.653Z,19.70
2023-05-21T06:05:24.280Z,19.70
2023-05-21T06:07:52.493Z,20.80
2023-05-21T06:10:21.578Z,20.03
2023-05-21T06:12:49.719Z,19.60
2023-05-21T06:15:20.092Z,19.30
2023-05-21T06:17:48.253Z,19.17
2023-05-21T06:20:17.029Z,19.50
2023-05-21T06:22:46.323Z,19.90
2023-05-21T06:25:14.599Z,19.33
2023-05-21T06:27:42.789Z,19.40
2023-05-21T06:30:11.312Z,19.20
2023-05-21T06:32:41.457Z,19.10
2023-05-21T06:35:10.257Z,19.30
2023-05-21T06:37:38.496Z,19.33
2023-05-21T06:40:08.719Z,19.30
2023-05-21T06:42:37.031Z,19.50
2023-05-21T06:45:05.868Z,18.77
2023-05-21T06:47:34.115Z,19.40
2023-05-21T06:50:03.649Z,18.60
2023-05-21T06:52:32.463Z,18.40
2023-05-21T06:55:00.680Z,18.57
2023-05-21T06:57:28.844Z,18.47
2023-05-21T06:59:56.964Z,19.27
2023-05-21T07:02:25.303Z,18.80
2023-05-21T07:04:55.690Z,19.97
2023-05-21T07:07:25.255Z,19.10
2023-05-21T07:09:53.424Z,19.87
2023-05-21T07:12:21.642Z,19.10
2023-05-21T07:14:50.527Z,18.53
2023-05-21T07:17:18.733Z,18.90
2023-05-21T07:19:46.761Z,18.80
2023-05-21T07:22:14.971Z,20.37
2023-05-21T07:24:44.391Z,19.50
2023-05-21T07:27:24.652Z,19.20
2023-05-21T07:29:54.186Z,19.53
2023-05-21T07:32:22.328Z,19.40
2023-05-21T07:34:51.579Z,19.40
2023-05-21T07:37:21.901Z,20.27
2023-05-21T07:39:51.318Z,19.53
2023-05-21T07:42:19.532Z,19.00
2023-05-21T07:44:47.690Z,19.10
2023-05-21T07:47:15.819Z,18.53
2023-05-21T07:49:44.019Z,19.13
2023-05-21T07:52:12.150Z,19.43
2023-05-21T07:54:40.286Z,20.13
2023-05-21T07:57:10.093Z,19.40
2023-05-21T07:59:38.386Z,19.63
2023-05-21T08:02:06.746Z,20.20
2023-05-21T08:04:35.077Z,20.30
2023-05-21T08:07:03.423Z,19.97
2023-05-21T08:09:32.259Z,19.70
2023-05-21T08:12:00.385Z,19.43
2023-05-21T08:14:30.106Z,19.27
2023-05-21T08:16:58.503Z,19.13
2023-05-21T08:19:26.631Z,19.00
2023-05-21T08:21:55.038Z,20.50
2023-05-21T08:24:23.260Z,18.87
2023-05-21T08:26:51.568Z,18.90
2023-05-21T08:29:19.652Z,19.40
2023-05-21T08:31:49.235Z,19.20
2023-05-21T08:34:18.653Z,20.23
2023-05-21T08:36:48.030Z,18.97
2023-05-21T08:39:16.136Z,19.70
2023-05-21T08:41:49.692Z,19.60
2023-05-21T08:44:22.100Z,19.40
2023-05-21T08:46:52.446Z,19.50
2023-05-21T08:49:27.869Z,19.47
2023-05-21T08:51:57.125Z,19.67
2023-05-21T08:54:25.927Z,20.20
2023-05-21T08:56:56.060Z,19.90
2023-05-21T08:59:24.993Z,18.97
2023-05-21T09:01:55.337Z,19.03
2023-05-21T09:04:24.970Z,19.10
2023-05-21T09:06:53.207Z,19.07
2023-05-21T09:09:29.304Z,19.20
2023-05-21T09:11:57.589Z,19.00
2023-05-21T09:14:27.531Z,18.67
2023-05-21T09:16:57.421Z,18.93
2023-05-21T09:19:25.724Z,18.40
2023-05-21T09:21:54.062Z,19.03
2023-05-21T09:24:23.726Z,19.20
2023-05-21T09:26:52.621Z,18.80
2023-05-21T09:29:20.816Z,18.30
2023-05-21T09:31:49.068Z,18.10
2023-05-21T09:34:18.649Z,18.10
2023-05-21T09:36:47.120Z,18.97
2023-05-21T09:39:28.973Z,18.70
2023-05-21T09:41:58.407Z,18.20
2023-05-21T09:44:27.779Z,18.30
2023-05-21T09:46:58.806Z,18.40
2023-05-21T09:49:28.532Z,18.10
2023-05-21T09:51:57.915Z,17.87
2023-05-21T09:54:26.561Z,18.40
2023-05-21T09:56:54.809Z,18.20
2023-05-21T09:59:23.302Z,18.03
2023-05-21T10:01:53.211Z,18.63
2023-05-21T10:04:22.818Z,18.83
2023-05-21T10:06:53.480Z,18.70
2023-05-21T10:09:22.437Z,18.67
2023-05-21T10:11:53.465Z,18.37
2023-05-21T10:14:22.575Z,18.00
2023-05-21T10:16:53.761Z,18.40
2023-05-21T10:19:23.659Z,18.83
2023-05-21T10:21:57.143Z,18.70
2023-05-21T10:24:26.283Z,17.80
2023-05-21T10:26:54.700Z,17.73
2023-05-21T10:29:24.300Z,17.97
2023-05-21T10:31:54.285Z,17.40
2023-05-21T10:34:24.353Z,17.73
2023-05-21T10:36:55.827Z,17.13
2023-05-21T10:39:26.364Z,17.17
2023-05-21T10:42:05.292Z,17.30
2023-05-21T10:44:45.529Z,17.33
2023-05-21T10:47:54.900Z,17.20
2023-05-21T10:50:48.409Z,17.87
2023-05-21T10:53:30.623Z,17.10
2023-05-21T10:56:13.552Z,17.17
2023-05-21T10:58:59.579Z,17.57
2023-05-21T11:01:34.286Z,17.87
2023-05-21T11:04:03.277Z,18.40
2023-05-21T11:06:32.387Z,17.93
2023-05-21T11:09:13.405Z,19.30
2023-05-21T11:11:43.585Z,19.77
2023-05-21T11:14:35.320Z,19.40
2023-05-21T11:17:05.209Z,19.13
2023-05-21T11:19:38.371Z,20.43
2023-05-21T11:22:09.785Z,20.00
2023-05-21T11:24:45.441Z,19.20
2023-05-21T11:27:17.794Z,18.90
2023-05-21T11:29:47.568Z,18.60
2023-05-21T11:32:17.653Z,18.40
2023-05-21T11:34:47.549Z,18.00
2023-05-21T11:37:30.843Z,17.97
2023-05-21T11:40:22.874Z,17.60
2023-05-21T11:42:53.954Z,19.07
2023-05-21T11:45:29.432Z,18.10
2023-05-21T11:48:05.657Z,17.73
2023-05-21T11:50:36.339Z,18.13
2023-05-21T11:53:07.796Z,17.87
2023-05-21T11:55:43.723Z,19.00
2023-05-21T11:58:16.904Z,19.13
2023-05-21T12:00:46.607Z,18.67
2023-05-21T12:03:20.137Z,18.60
2023-05-21T12:05:49.451Z,19.07
2023-05-21T12:08:25.342Z,19.90
2023-05-21T12:11:00.259Z,20.10
2023-05-21T12:13:29.462Z,20.07
2023-05-21T12:15:57.735Z,18.53
2023-05-21T12:18:27.977Z,19.53
2023-05-21T12:20:57.274Z,19.73
2023-05-21T12:23:26.112Z,19.33
2023-05-21T12:25:55.176Z,20.23
2023-05-21T12:28:25.702Z,19.13
2023-05-21T12:30:55.526Z,19.03
2023-05-21T12:33:26.128Z,18.67
2023-05-21T12:35:58.323Z,18.47
2023-05-21T12:38:32.725Z,18.40
2023-05-21T12:41:05.962Z,18.57
2023-05-21T12:43:46.110Z,18.87
2023-05-21T12:46:17.353Z,18.97
2023-05-21T12:48:51.554Z,18.70
2023-05-21T12:51:19.937Z,19.20
2023-05-21T12:53:51.379Z,18.57
2023-05-21T12:56:19.547Z,19.97
2023-05-21T12:58:51.777Z,18.30
2023-05-21T13:01:23.109Z,18.60
2023-05-21T13:03:51.963Z,19.17
2023-05-21T13:06:20.198Z,18.23
2023-05-21T13:08:48.507Z,18.40
2023-05-21T13:11:16.702Z,18.50
2023-05-21T13:13:44.823Z,19.27
2023-05-21T13:16:14.479Z,18.80
2023-05-21T13:18:42.674Z,19.00
2023-05-21T13:21:10.929Z,18.43
2023-05-21T13:23:39.093Z,18.00
2023-05-21T13:26:07.545Z,18.93
2023-05-21T13:28:35.707Z,18.47
2023-05-21T13:31:03.870Z,19.07
2023-05-21T13:33:33.372Z,18.47
2023-05-21T13:36:01.680Z,18.40
2023-05-21T13:38:29.928Z,19.60
2023-05-21T13:40:58.114Z,19.73
2023-05-21T13:43:26.301Z,19.70
2023-05-21T13:45:54.420Z,19.43
2023-05-21T13:48:22.592Z,19.17
2023-05-21T13:50:52.110Z,19.70
2023-05-21T13:53:20.227Z,20.77
2023-05-21T13:55:48.434Z,19.27
2023-05-21T13:58:16.582Z,19.17
2023-05-21T14:00:44.791Z,18.90
2023-05-21T14:03:13.097Z,18.60
2023-05-21T14:05:41.291Z,19.30
2023-05-21T14:08:11.471Z,19.00
2023-05-21T14:10:39.588Z,19.30
2023-05-21T14:13:19.099Z,18.60
2023-05-21T14:15:48.512Z,19.00
2023-05-21T14:18:17.024Z,24.10
2023-05-21T14:20:45.296Z,18.43
2023-05-21T14:23:14.926Z,19.50
2023-05-21T14:25:43.292Z,18.77
2023-05-21T14:28:11.470Z,18.80
2023-05-21T14:30:39.601Z,19.73
2023-05-21T14:33:07.793Z,19.30
2023-05-21T14:35:36.175Z,18.60
2023-05-21T14:38:04.539Z,19.37
2023-05-21T14:40:35.939Z,18.53
2023-05-21T14:43:04.028Z,18.90
2023-05-21T14:45:35.281Z,19.43
2023-05-21T14:48:08.355Z,19.60
2023-05-21T14:50:36.916Z,19.80
2023-05-21T14:53:06.279Z,19.27
2023-05-21T14:55:39.206Z,19.70
2023-05-21T14:58:08.243Z,19.33
2023-05-21T15:00:37.375Z,20.27
2023-05-21T15:03:06.149Z,19.40
2023-05-21T15:05:34.589Z,19.17
2023-05-21T15:08:04.049Z,20.03
2023-05-21T15:10:32.488Z,19.70
2023-05-21T15:13:01.952Z,19.17
2023-05-21T15:15:30.380Z,18.60
2023-05-21T15:17:58.719Z,19.20
2023-05-21T15:20:26.903Z,20.17
2023-05-21T15:23:08.496Z,19.10
2023-05-21T15:25:43.313Z,18.60
2023-05-21T15:28:13.088Z,19.27
2023-05-21T15:30:41.614Z,18.87
2023-05-21T15:33:09.756Z,19.47
2023-05-21T15:35:38.888Z,19.20
2023-05-21T15:38:07.436Z,19.50
2023-05-21T15:40:35.563Z,19.50
2023-05-21T15:43:03.761Z,19.40
2023-05-21T15:45:33.218Z,18.90
2023-05-21T15:48:01.468Z,18.87
2023-05-21T15:50:29.650Z,19.30
2023-05-21T15:52:57.817Z,20.27
2023-05-21T15:55:26.121Z,19.20
2023-05-21T15:57:54.321Z,21.67
2023-05-21T16:00:22.627Z,19.27
2023-05-21T16:02:52.278Z,19.80
2023-05-21T16:05:20.607Z,19.80
2023-05-21T16:07:49.161Z,19.30
2023-05-21T16:10:17.381Z,19.03
2023-05-21T16:12:45.814Z,20.47
2023-05-21T16:15:14.091Z,19.10
2023-05-21T16:17:42.312Z,19.27
2023-05-21T16:20:12.827Z,19.07
2023-05-21T16:22:41.713Z,19.33
2023-05-21T16:25:10.392Z,19.30
2023-05-21T16:27:38.535Z,19.27
2023-05-21T16:30:07.897Z,18.83
2023-05-21T16:32:36.222Z,18.23
2023-05-21T16:35:05.025Z,18.30
2023-05-21T16:37:35.185Z,18.20
2023-05-21T16:40:04.634Z,18.67
2023-05-21T16:42:32.764Z,18.43
2023-05-21T16:45:00.818Z,18.80
2023-05-21T16:47:29.001Z,18.43
2023-05-21T16:49:58.431Z,18.13
2023-05-21T16:52:27.345Z,18.17
2023-05-21T16:54:56.871Z,18.00
2023-05-21T16:57:24.984Z,18.13
2023-05-21T16:59:53.126Z,18.07
2023-05-21T17:02:21.467Z,17.63
2023-05-21T17:04:49.580Z,17.63
2023-05-21T17:07:17.970Z,18.00
2023-05-21T17:09:46.084Z,17.57
2023-05-21T17:12:15.687Z,17.80
2023-05-21T17:14:43.908Z,18.40
2023-05-21T17:17:12.136Z,17.90
2023-05-21T17:19:44.807Z,17.93
2023-05-21T17:22:13.020Z,17.80
2023-05-21T17:24:44.097Z,18.40
2023-05-21T17:27:17.274Z,18.17
2023-05-21T17:29:45.498Z,18.20
2023-05-21T17:32:16.786Z,19.00
2023-05-21T17:34:46.884Z,18.33
2023-05-21T17:37:23.745Z,18.33
2023-05-21T17:39:54.466Z,18.17
2023-05-21T17:42:25.906Z,18.30
2023-05-21T17:44:56.615Z,18.90
2023-05-21T17:47:28.878Z,18.57
2023-05-21T17:49:56.954Z,17.70
2023-05-21T17:52:30.143Z,19.13
2023-05-21T17:55:04.411Z,18.03
2023-05-21T17:57:37.883Z,18.63
2023-05-21T18:00:07.716Z,18.33
2023-05-21T18:02:42.680Z,18.53
2023-05-21T18:05:13.705Z,41.57
2023-05-21T18:07:41.956Z,19.20
2023-05-21T18:10:12.948Z,18.50
2023-05-21T18:12:46.310Z,19.50
2023-05-21T18:15:15.655Z,18.63
2023-05-21T18:17:43.835Z,19.53
2023-05-21T18:20:13.346Z,18.60
2023-05-21T18:22:41.651Z,18.40
2023-05-21T18:25:10.883Z,36.57
2023-05-21T18:27:39.315Z,18.70
2023-05-21T18:30:10.195Z,19.17
2023-05-21T18:32:39.544Z,18.70
2023-05-21T18:35:10.926Z,19.90
2023-05-21T18:37:42.192Z,18.90
2023-05-21T18:40:11.957Z,18.83
2023-05-21T18:42:40.334Z,19.57
2023-05-21T18:45:11.538Z,18.97
2023-05-21T18:47:40.636Z,18.80
2023-05-21T18:50:29.378Z,19.10
2023-05-21T18:52:57.978Z,19.00
2023-05-21T18:55:27.170Z,18.60
2023-05-21T18:57:56.037Z,18.00
2023-05-21T19:00:26.197Z,19.43
2023-05-21T19:02:54.605Z,18.13
2023-05-21T19:05:23.076Z,19.00
2023-05-21T19:07:51.212Z,18.70
2023-05-21T19:10:19.839Z,18.57
2023-05-21T19:12:48.041Z,18.27
2023-05-21T19:15:16.658Z,18.70
2023-05-21T19:17:46.288Z,18.30
2023-05-21T19:20:24.300Z,18.63
2023-05-21T19:22:52.708Z,18.10
2023-05-21T19:25:21.130Z,17.83
2023-05-21T19:27:49.399Z,18.43
2023-05-21T19:30:17.956Z,18.00
2023-05-21T19:32:48.258Z,19.00
2023-05-21T19:35:17.183Z,18.53
2023-05-21T19:37:45.550Z,20.73
2023-05-21T19:40:14.226Z,19.33
2023-05-21T19:42:42.444Z,19.13
2023-05-21T19:45:11.900Z,19.33
2023-05-21T19:47:41.106Z,20.10
2023-05-21T19:50:12.401Z,18.77
2023-05-21T19:52:40.913Z,20.05
2023-05-21T19:55:10.323Z,19.60
2023-05-21T19:57:39.770Z,19.40
2023-05-21T20:00:10.689Z,19.93
2023-05-21T20:02:38.984Z,19.47
2023-05-21T20:05:08.153Z,21.13
2023-05-21T20:07:37.683Z,18.40
2023-05-21T20:10:06.908Z,19.13
2023-05-21T20:12:35.724Z,18.60
2023-05-21T20:15:05.661Z,18.63
2023-05-21T20:17:34.150Z,18.73
2023-05-21T20:20:07.432Z,22.97
2023-05-21T20:22:37.086Z,21.20
2023-05-21T20:25:07.420Z,20.80
2023-05-21T20:27:38.594Z,20.90
2023-05-21T20:30:08.693Z,20.47
2023-05-21T20:32:37.271Z,22.93
2023-05-21T20:35:06.453Z,20.40
2023-05-21T20:37:34.865Z,20.57
2023-05-21T20:40:07.070Z,21.43
2023-05-21T20:42:36.583Z,22.17
2023-05-21T20:45:05.180Z,21.83
2023-05-21T20:47:33.925Z,22.20
2023-05-21T20:50:03.265Z,23.17
2023-05-21T20:52:31.706Z,23.07
2023-05-21T20:55:00.506Z,23.73
2023-05-21T20:57:30.136Z,23.90
2023-05-21T20:59:58.307Z,25.67
2023-05-21T21:02:26.949Z,25.43
2023-05-21T21:04:56.362Z,25.70
2023-05-21T21:07:24.552Z,26.50
2023-05-21T21:09:52.689Z,25.60
2023-05-21T21:12:26.428Z,24.97
2023-05-21T21:14:56.529Z,25.87
2023-05-21T21:17:24.930Z,28.30
2023-05-21T21:19:53.099Z,28.60
2023-05-21T21:22:21.615Z,29.50
2023-05-21T21:24:50.016Z,30.33
2023-05-21T21:27:18.435Z,29.90
2023-05-21T21:29:46.733Z,28.87
2023-05-21T21:32:16.365Z,31.80
2023-05-21T21:34:44.735Z,32.27
2023-05-21T21:37:13.668Z,30.70
2023-05-21T21:39:42.393Z,31.50
2023-05-21T21:42:10.830Z,31.67
2023-05-21T21:44:39.467Z,37.20
2023-05-21T21:47:07.937Z,33.80
2023-05-21T21:49:37.700Z,34.47
2023-05-21T21:52:07.093Z,35.40
2023-05-21T21:54:35.473Z,36.17
2023-05-21T21:57:03.733Z,37.20
2023-05-21T21:59:32.132Z,39.53
2023-05-21T22:02:00.899Z,39.10
2023-05-21T22:04:29.256Z,39.20
2023-05-21T22:06:59.054Z,38.40
2023-05-21T22:09:27.430Z,40.63
2023-05-21T22:11:56.524Z,41.90
2023-05-21T22:14:24.844Z,42.40
2023-05-21T22:16:53.470Z,44.00
2023-05-21T22:19:22.636Z,45.13
2023-05-21T22:21:50.808Z,46.70
2023-05-21T22:24:31.527Z,45.57
2023-05-21T22:27:01.230Z,46.40
2023-05-21T22:29:29.343Z,43.70
2023-05-21T22:31:57.597Z,44.63
2023-05-21T22:34:25.798Z,43.13
2023-05-21T22:36:53.954Z,44.60
2023-05-21T22:39:23.471Z,45.07
2023-05-21T22:41:51.680Z,43.00
2023-05-21T22:44:20.358Z,44.80
2023-05-21T22:46:49.462Z,47.40
2023-05-21T22:49:17.758Z,48.17
2023-05-21T22:51:46.398Z,49.70
2023-05-21T22:54:14.477Z,51.97
2023-05-21T22:56:44.382Z,52.97
2023-05-21T22:59:12.501Z,52.13
2023-05-21T23:01:40.782Z,56.37
2023-05-21T23:04:08.923Z,57.30
2023-05-21T23:06:37.007Z,59.90
2023-05-21T23:09:05.945Z,61.57
2023-05-21T23:11:34.091Z,63.43
2023-05-21T23:14:03.620Z,80.43
2023-05-21T23:16:32.339Z,82.10
2023-05-21T23:19:02.673Z,78.37
2023-05-21T23:21:31.483Z,81.47
2023-05-21T23:23:59.639Z,83.03
2023-05-21T23:26:28.583Z,77.47
2023-05-21T23:28:56.795Z,77.30
2023-05-21T23:31:26.612Z,81.07
2023-05-21T23:33:54.775Z,75.80
2023-05-21T23:36:22.923Z,78.23
2023-05-21T23:38:51.066Z,80.17
2023-05-21T23:41:19.185Z,78.57
2023-05-21T23:43:47.282Z,78.37
2023-05-21T23:46:15.417Z,75.60
2023-05-21T23:48:44.905Z,71.53
2023-05-21T23:51:13.304Z,70.63
2023-05-21T23:53:41.414Z,69.30
2023-05-21T23:56:09.518Z,64.03
2023-05-21T23:58:37.647Z,62.70
